sensor_id;sensor_type;location;lat;lon;timestamp;temperature;humidity
21891;DHT22;11110;52.386;16.940;2023-04-19T00:02:17;21.10;36.20
21891;DHT22;11110;52.386;16.940;2023-04-19T00:04:46;21.00;35.70
21891;DHT22;11110;52.386;16.940;2023-04-19T00:07:15;21.00;35.60
21891;DHT22;11110;52.386;16.940;2023-04-19T00:09:44;21.00;35.20
21891;DHT22;11110;52.386;16.940;2023-04-19T00:12:13;20.80;34.90
21891;DHT22;11110;52.386;16.940;2023-04-19T00:14:41;20.70;34.70
21891;DHT22;11110;52.386;16.940;2023-04-19T00:17:10;20.70;34.50
21891;DHT22;11110;52.386;16.940;2023-04-19T00:19:39;20.60;34.40
21891;DHT22;11110;52.386;16.940;2023-04-19T00:22:08;20.60;34.30
21891;DHT22;11110;52.386;16.940;2023-04-19T00:24:36;20.60;34.10
21891;DHT22;11110;52.386;16.940;2023-04-19T00:27:05;20.60;34.10
21891;DHT22;11110;52.386;16.940;2023-04-19T00:29:33;20.60;33.90
21891;DHT22;11110;52.386;16.940;2023-04-19T00:32:02;20.50;34.00
21891;DHT22;11110;52.386;16.940;2023-04-19T00:34:31;20.50;34.10
21891;DHT22;11110;52.386;16.940;2023-04-19T00:37:01;20.40;34.10
21891;DHT22;11110;52.386;16.940;2023-04-19T00:39:31;20.40;34.30
21891;DHT22;11110;52.386;16.940;2023-04-19T00:42:00;20.40;34.40
21891;DHT22;11110;52.386;16.940;2023-04-19T00:44:28;20.30;34.60
21891;DHT22;11110;52.386;16.940;2023-04-19T00:46:58;20.40;34.70
21891;DHT22;11110;52.386;16.940;2023-04-19T00:49:28;20.50;34.80
21891;DHT22;11110;52.386;16.940;2023-04-19T00:51:57;20.40;34.30
21891;DHT22;11110;52.386;16.940;2023-04-19T00:54:27;20.30;34.20
21891;DHT22;11110;52.386;16.940;2023-04-19T00:56:56;20.40;34.20
21891;DHT22;11110;52.386;16.940;2023-04-19T00:59:24;20.20;33.90
21891;DHT22;11110;52.386;16.940;2023-04-19T01:01:53;20.10;34.00
21891;DHT22;11110;52.386;16.940;2023-04-19T01:04:22;20.10;33.90
21891;DHT22;11110;52.386;16.940;2023-04-19T01:06:51;20.10;34.10
21891;DHT22;11110;52.386;16.940;2023-04-19T01:09:20;20.30;34.30
21891;DHT22;11110;52.386;16.940;2023-04-19T01:11:50;20.10;34.30
21891;DHT22;11110;52.386;16.940;2023-04-19T01:14:20;20.00;34.40
21891;DHT22;11110;52.386;16.940;2023-04-19T01:16:48;19.80;34.60
21891;DHT22;11110;52.386;16.940;2023-04-19T01:19:17;19.90;34.80
21891;DHT22;11110;52.386;16.940;2023-04-19T01:21:47;19.90;34.90
21891;DHT22;11110;52.386;16.940;2023-04-19T01:24:17;20.10;34.90
21891;DHT22;11110;52.386;16.940;2023-04-19T01:26:49;20.10;34.60
21891;DHT22;11110;52.386;16.940;2023-04-19T01:29:17;20.10;34.50
21891;DHT22;11110;52.386;16.940;2023-04-19T01:31:48;20.00;34.70
21891;DHT22;11110;52.386;16.940;2023-04-19T01:34:20;20.00;34.60
21891;DHT22;11110;52.386;16.940;2023-04-19T01:36:49;20.00;34.80
21891;DHT22;11110;52.386;16.940;2023-04-19T01:39:19;20.00;35.00
21891;DHT22;11110;52.386;16.940;2023-04-19T01:41:47;20.20;34.70
21891;DHT22;11110;52.386;16.940;2023-04-19T01:44:15;19.80;34.80
21891;DHT22;11110;52.386;16.940;2023-04-19T01:46:44;19.70;35.00
21891;DHT22;11110;52.386;16.940;2023-04-19T01:49:12;19.60;35.30
21891;DHT22;11110;52.386;16.940;2023-04-19T01:51:42;19.50;35.30
21891;DHT22;11110;52.386;16.940;2023-04-19T01:54:11;19.40;35.50
21891;DHT22;11110;52.386;16.940;2023-04-19T01:56:41;19.40;35.70
21891;DHT22;11110;52.386;16.940;2023-04-19T01:59:09;19.30;35.70
21891;DHT22;11110;52.386;16.940;2023-04-19T02:01:37;19.30;35.90
21891;DHT22;11110;52.386;16.940;2023-04-19T02:04:06;19.10;35.90
21891;DHT22;11110;52.386;16.940;2023-04-19T02:06:35;19.00;36.10
21891;DHT22;11110;52.386;16.940;2023-04-19T02:09:03;18.90;36.40
21891;DHT22;11110;52.386;16.940;2023-04-19T02:11:32;18.90;36.40
21891;DHT22;11110;52.386;16.940;2023-04-19T02:14:02;18.90;36.40
21891;DHT22;11110;52.386;16.940;2023-04-19T02:16:31;18.80;36.50
21891;DHT22;11110;52.386;16.940;2023-04-19T02:19:02;18.80;36.50
21891;DHT22;11110;52.386;16.940;2023-04-19T02:21:32;18.70;36.50
21891;DHT22;11110;52.386;16.940;2023-04-19T02:24:01;18.80;36.70
21891;DHT22;11110;52.386;16.940;2023-04-19T02:26:30;18.70;36.70
21891;DHT22;11110;52.386;16.940;2023-04-19T02:28:59;18.70;36.60
21891;DHT22;11110;52.386;16.940;2023-04-19T02:31:29;18.60;36.80
21891;DHT22;11110;52.386;16.940;2023-04-19T02:33:57;18.70;36.90
21891;DHT22;11110;52.386;16.940;2023-04-19T02:36:26;18.70;36.80
21891;DHT22;11110;52.386;16.940;2023-04-19T02:38:54;18.80;36.70
21891;DHT22;11110;52.386;16.940;2023-04-19T02:41:23;18.80;36.70
21891;DHT22;11110;52.386;16.940;2023-04-19T02:43:51;18.70;36.60
21891;DHT22;11110;52.386;16.940;2023-04-19T02:46:19;18.60;36.80
21891;DHT22;11110;52.386;16.940;2023-04-19T02:48:49;18.50;36.90
21891;DHT22;11110;52.386;16.940;2023-04-19T02:51:18;18.40;37.40
21891;DHT22;11110;52.386;16.940;2023-04-19T02:53:46;18.30;37.50
21891;DHT22;11110;52.386;16.940;2023-04-19T02:56:15;18.20;37.70
21891;DHT22;11110;52.386;16.940;2023-04-19T02:58:43;18.40;38.00
21891;DHT22;11110;52.386;16.940;2023-04-19T03:01:13;18.20;37.70
21891;DHT22;11110;52.386;16.940;2023-04-19T03:03:41;18.10;38.00
21891;DHT22;11110;52.386;16.940;2023-04-19T03:06:12;18.00;38.30
21891;DHT22;11110;52.386;16.940;2023-04-19T03:08:40;17.90;38.40
21891;DHT22;11110;52.386;16.940;2023-04-19T03:11:10;17.90;38.70
21891;DHT22;11110;52.386;16.940;2023-04-19T03:13:38;17.90;38.80
21891;DHT22;11110;52.386;16.940;2023-04-19T03:16:07;17.90;38.60
21891;DHT22;11110;52.386;16.940;2023-04-19T03:18:36;17.90;38.80
21891;DHT22;11110;52.386;16.940;2023-04-19T03:21:05;17.70;39.00
21891;DHT22;11110;52.386;16.940;2023-04-19T03:23:53;17.60;39.30
21891;DHT22;11110;52.386;16.940;2023-04-19T03:26:23;17.60;39.60
21891;DHT22;11110;52.386;16.940;2023-04-19T03:28:53;17.60;39.60
21891;DHT22;11110;52.386;16.940;2023-04-19T03:31:41;17.50;39.60
21891;DHT22;11110;52.386;16.940;2023-04-19T03:34:11;17.30;40.00
21891;DHT22;11110;52.386;16.940;2023-04-19T03:36:44;17.50;40.30
21891;DHT22;11110;52.386;16.940;2023-04-19T03:39:13;17.50;40.10
21891;DHT22;11110;52.386;16.940;2023-04-19T03:41:46;17.60;40.30
21891;DHT22;11110;52.386;16.940;2023-04-19T03:44:43;17.50;40.00
21891;DHT22;11110;52.386;16.940;2023-04-19T03:47:14;17.40;40.30
21891;DHT22;11110;52.386;16.940;2023-04-19T03:49:47;17.40;40.50
21891;DHT22;11110;52.386;16.940;2023-04-19T03:52:17;17.50;40.60
21891;DHT22;11110;52.386;16.940;2023-04-19T03:54:46;17.50;40.70
21891;DHT22;11110;52.386;16.940;2023-04-19T03:57:29;17.50;40.70
21891;DHT22;11110;52.386;16.940;2023-04-19T04:00:00;17.50;40.70
21891;DHT22;11110;52.386;16.940;2023-04-19T04:02:40;17.50;41.10
21891;DHT22;11110;52.386;16.940;2023-04-19T04:05:11;17.60;41.30
21891;DHT22;11110;52.386;16.940;2023-04-19T04:07:40;17.50;41.40
21891;DHT22;11110;52.386;16.940;2023-04-19T04:10:10;17.60;41.20
21891;DHT22;11110;52.386;16.940;2023-04-19T04:12:42;17.50;41.30
21891;DHT22;11110;52.386;16.940;2023-04-19T04:15:16;17.50;41.20
21891;DHT22;11110;52.386;16.940;2023-04-19T04:17:50;17.50;41.40
21891;DHT22;11110;52.386;16.940;2023-04-19T04:20:20;17.70;41.30
21891;DHT22;11110;52.386;16.940;2023-04-19T04:22:50;17.50;41.20
21891;DHT22;11110;52.386;16.940;2023-04-19T04:25:22;17.60;41.60
21891;DHT22;11110;52.386;16.940;2023-04-19T04:27:50;17.60;41.50
21891;DHT22;11110;52.386;16.940;2023-04-19T04:30:22;17.70;41.50
21891;DHT22;11110;52.386;16.940;2023-04-19T04:32:55;17.60;41.20
21891;DHT22;11110;52.386;16.940;2023-04-19T04:35:25;17.60;41.20
21891;DHT22;11110;52.386;16.940;2023-04-19T04:38:07;17.80;41.60
21891;DHT22;11110;52.386;16.940;2023-04-19T04:40:52;17.80;41.20
21891;DHT22;11110;52.386;16.940;2023-04-19T04:43:21;17.80;41.20
21891;DHT22;11110;52.386;16.940;2023-04-19T04:45:50;17.80;41.20
21891;DHT22;11110;52.386;16.940;2023-04-19T04:48:22;17.80;40.90
21891;DHT22;11110;52.386;16.940;2023-04-19T04:50:50;17.70;41.10
21891;DHT22;11110;52.386;16.940;2023-04-19T04:53:19;17.90;41.50
21891;DHT22;11110;52.386;16.940;2023-04-19T04:55:48;17.80;41.40
21891;DHT22;11110;52.386;16.940;2023-04-19T04:58:19;17.90;41.50
21891;DHT22;11110;52.386;16.940;2023-04-19T05:00:54;17.70;41.20
21891;DHT22;11110;52.386;16.940;2023-04-19T05:03:24;17.70;41.60
21891;DHT22;11110;52.386;16.940;2023-04-19T05:05:56;17.80;41.80
21891;DHT22;11110;52.386;16.940;2023-04-19T05:08:25;17.80;41.60
21891;DHT22;11110;52.386;16.940;2023-04-19T05:10:59;17.80;41.60
21891;DHT22;11110;52.386;16.940;2023-04-19T05:13:32;17.80;41.70
21891;DHT22;11110;52.386;16.940;2023-04-19T05:16:01;17.80;42.00
21891;DHT22;11110;52.386;16.940;2023-04-19T05:18:29;17.80;42.10
21891;DHT22;11110;52.386;16.940;2023-04-19T05:20:59;17.60;42.20
21891;DHT22;11110;52.386;16.940;2023-04-19T05:23:31;17.50;42.60
21891;DHT22;11110;52.386;16.940;2023-04-19T05:25:59;17.50;42.80
21891;DHT22;11110;52.386;16.940;2023-04-19T05:28:28;17.50;43.00
21891;DHT22;11110;52.386;16.940;2023-04-19T05:31:09;17.40;43.00
21891;DHT22;11110;52.386;16.940;2023-04-19T05:33:45;17.50;43.20
21891;DHT22;11110;52.386;16.940;2023-04-19T05:36:14;17.60;43.40
21891;DHT22;11110;52.386;16.940;2023-04-19T05:38:42;17.60;43.10
21891;DHT22;11110;52.386;16.940;2023-04-19T05:41:11;17.70;43.30
21891;DHT22;11110;52.386;16.940;2023-04-19T05:43:39;17.70;43.20
21891;DHT22;11110;52.386;16.940;2023-04-19T05:46:09;17.70;43.40
21891;DHT22;11110;52.386;16.940;2023-04-19T05:48:38;17.80;43.40
21891;DHT22;11110;52.386;16.940;2023-04-19T05:51:29;17.90;43.70
21891;DHT22;11110;52.386;16.940;2023-04-19T05:54:18;17.90;43.80
21891;DHT22;11110;52.386;16.940;2023-04-19T05:56:47;18.00;43.80
21891;DHT22;11110;52.386;16.940;2023-04-19T05:59:16;18.00;44.20
21891;DHT22;11110;52.386;16.940;2023-04-19T06:01:46;18.10;43.70
21891;DHT22;11110;52.386;16.940;2023-04-19T06:04:14;18.30;43.90
21891;DHT22;11110;52.386;16.940;2023-04-19T06:06:44;18.40;43.60
21891;DHT22;11110;52.386;16.940;2023-04-19T06:09:14;18.40;43.50
21891;DHT22;11110;52.386;16.940;2023-04-19T06:11:44;18.30;43.60
21891;DHT22;11110;52.386;16.940;2023-04-19T06:14:18;18.20;43.80
21891;DHT22;11110;52.386;16.940;2023-04-19T06:16:47;18.20;43.80
21891;DHT22;11110;52.386;16.940;2023-04-19T06:19:16;18.20;43.70
21891;DHT22;11110;52.386;16.940;2023-04-19T06:21:44;18.30;43.90
21891;DHT22;11110;52.386;16.940;2023-04-19T06:24:14;18.30;43.70
21891;DHT22;11110;52.386;16.940;2023-04-19T06:26:42;18.40;44.40
21891;DHT22;11110;52.386;16.940;2023-04-19T06:29:11;18.40;43.60
21891;DHT22;11110;52.386;16.940;2023-04-19T06:31:39;18.50;43.70
21891;DHT22;11110;52.386;16.940;2023-04-19T06:34:10;18.40;43.60
21891;DHT22;11110;52.386;16.940;2023-04-19T06:36:39;18.30;43.80
21891;DHT22;11110;52.386;16.940;2023-04-19T06:39:07;18.20;44.00
21891;DHT22;11110;52.386;16.940;2023-04-19T06:41:35;18.00;44.20
21891;DHT22;11110;52.386;16.940;2023-04-19T06:44:05;18.00;44.60
21891;DHT22;11110;52.386;16.940;2023-04-19T06:46:33;18.10;44.80
21891;DHT22;11110;52.386;16.940;2023-04-19T06:49:02;18.10;44.80
21891;DHT22;11110;52.386;16.940;2023-04-19T06:51:32;18.20;45.10
21891;DHT22;11110;52.386;16.940;2023-04-19T06:54:00;18.30;45.30
21891;DHT22;11110;52.386;16.940;2023-04-19T06:56:38;18.40;45.30
21891;DHT22;11110;52.386;16.940;2023-04-19T06:59:08;18.40;45.30
21891;DHT22;11110;52.386;16.940;2023-04-19T07:01:37;18.30;45.60
21891;DHT22;11110;52.386;16.940;2023-04-19T07:04:06;18.40;45.70
21891;DHT22;11110;52.386;16.940;2023-04-19T07:06:36;18.60;45.60
21891;DHT22;11110;52.386;16.940;2023-04-19T07:09:05;18.70;45.50
21891;DHT22;11110;52.386;16.940;2023-04-19T07:11:34;18.90;45.60
21891;DHT22;11110;52.386;16.940;2023-04-19T07:14:03;19.00;45.20
21891;DHT22;11110;52.386;16.940;2023-04-19T07:16:32;18.90;45.30
21891;DHT22;11110;52.386;16.940;2023-04-19T07:19:01;18.90;45.30
21891;DHT22;11110;52.386;16.940;2023-04-19T07:21:29;18.90;45.50
21891;DHT22;11110;52.386;16.940;2023-04-19T07:24:01;19.00;45.60
21891;DHT22;11110;52.386;16.940;2023-04-19T07:26:29;19.00;45.60
21891;DHT22;11110;52.386;16.940;2023-04-19T07:28:58;18.90;45.50
21891;DHT22;11110;52.386;16.940;2023-04-19T07:31:27;19.00;46.40
21891;DHT22;11110;52.386;16.940;2023-04-19T07:33:56;18.80;45.90
21891;DHT22;11110;52.386;16.940;2023-04-19T07:36:24;18.70;46.10
21891;DHT22;11110;52.386;16.940;2023-04-19T07:38:53;18.70;46.40
21891;DHT22;11110;52.386;16.940;2023-04-19T07:41:23;18.70;46.40
21891;DHT22;11110;52.386;16.940;2023-04-19T07:43:51;18.60;46.30
21891;DHT22;11110;52.386;16.940;2023-04-19T07:46:19;18.50;46.50
21891;DHT22;11110;52.386;16.940;2023-04-19T07:48:48;18.60;46.40
21891;DHT22;11110;52.386;16.940;2023-04-19T07:51:16;18.70;46.40
21891;DHT22;11110;52.386;16.940;2023-04-19T07:53:46;19.00;46.30
21891;DHT22;11110;52.386;16.940;2023-04-19T07:56:14;19.20;46.20
21891;DHT22;11110;52.386;16.940;2023-04-19T07:58:44;19.20;45.70
21891;DHT22;11110;52.386;16.940;2023-04-19T08:01:30;19.20;45.80
21891;DHT22;11110;52.386;16.940;2023-04-19T08:03:59;19.20;45.50
21891;DHT22;11110;52.386;16.940;2023-04-19T08:06:28;19.00;45.50
21891;DHT22;11110;52.386;16.940;2023-04-19T08:08:57;19.00;45.70
21891;DHT22;11110;52.386;16.940;2023-04-19T08:11:25;18.90;45.80
21891;DHT22;11110;52.386;16.940;2023-04-19T08:13:55;18.90;45.80
21891;DHT22;11110;52.386;16.940;2023-04-19T08:16:44;19.00;45.80
21891;DHT22;11110;52.386;16.940;2023-04-19T08:19:15;18.90;45.60
21891;DHT22;11110;52.386;16.940;2023-04-19T08:21:43;18.90;45.90
21891;DHT22;11110;52.386;16.940;2023-04-19T08:24:12;18.80;46.00
21891;DHT22;11110;52.386;16.940;2023-04-19T08:26:40;18.80;46.40
21891;DHT22;11110;52.386;16.940;2023-04-19T08:29:11;18.80;45.80
21891;DHT22;11110;52.386;16.940;2023-04-19T08:31:42;19.00;45.90
21891;DHT22;11110;52.386;16.940;2023-04-19T08:34:11;18.90;46.10
21891;DHT22;11110;52.386;16.940;2023-04-19T08:36:39;19.00;46.30
21891;DHT22;11110;52.386;16.940;2023-04-19T08:39:18;19.00;45.90
21891;DHT22;11110;52.386;16.940;2023-04-19T08:42:02;19.10;45.70
21891;DHT22;11110;52.386;16.940;2023-04-19T08:44:45;19.30;45.40
21891;DHT22;11110;52.386;16.940;2023-04-19T08:47:35;19.00;45.20
21891;DHT22;11110;52.386;16.940;2023-04-19T08:50:24;19.00;45.50
21891;DHT22;11110;52.386;16.940;2023-04-19T08:53:01;18.90;45.20
21891;DHT22;11110;52.386;16.940;2023-04-19T08:55:50;18.90;45.00
21891;DHT22;11110;52.386;16.940;2023-04-19T08:58:38;18.80;45.30
21891;DHT22;11110;52.386;16.940;2023-04-19T09:01:28;18.70;45.60
21891;DHT22;11110;52.386;16.940;2023-04-19T09:04:03;18.50;45.90
21891;DHT22;11110;52.386;16.940;2023-04-19T09:06:54;18.60;46.60
21891;DHT22;11110;52.386;16.940;2023-04-19T09:09:25;19.10;45.50
21891;DHT22;11110;52.386;16.940;2023-04-19T09:12:15;18.90;45.00
21891;DHT22;11110;52.386;16.940;2023-04-19T09:14:44;19.00;45.60
21891;DHT22;11110;52.386;16.940;2023-04-19T09:17:29;18.70;45.40
21891;DHT22;11110;52.386;16.940;2023-04-19T09:19:58;18.80;46.30
21891;DHT22;11110;52.386;16.940;2023-04-19T09:22:26;19.00;46.00
21891;DHT22;11110;52.386;16.940;2023-04-19T09:24:55;18.90;45.50
21891;DHT22;11110;52.386;16.940;2023-04-19T09:27:28;18.80;45.90
21891;DHT22;11110;52.386;16.940;2023-04-19T09:29:58;18.80;46.40
21891;DHT22;11110;52.386;16.940;2023-04-19T09:32:43;19.00;45.90
21891;DHT22;11110;52.386;16.940;2023-04-19T09:35:12;18.80;45.70
21891;DHT22;11110;52.386;16.940;2023-04-19T09:37:41;18.70;46.10
21891;DHT22;11110;52.386;16.940;2023-04-19T09:40:21;18.80;46.30
21891;DHT22;11110;52.386;16.940;2023-04-19T09:42:50;18.90;46.50
21891;DHT22;11110;52.386;16.940;2023-04-19T09:45:22;18.80;46.50
21891;DHT22;11110;52.386;16.940;2023-04-19T09:48:02;18.90;46.20
21891;DHT22;11110;52.386;16.940;2023-04-19T09:50:32;18.70;46.00
21891;DHT22;11110;52.386;16.940;2023-04-19T09:53:21;18.70;46.70
21891;DHT22;11110;52.386;16.940;2023-04-19T09:55:50;18.80;46.90
21891;DHT22;11110;52.386;16.940;2023-04-19T09:58:28;18.80;47.10
21891;DHT22;11110;52.386;16.940;2023-04-19T10:01:17;18.80;46.60
21891;DHT22;11110;52.386;16.940;2023-04-19T10:03:48;18.70;46.50
21891;DHT22;11110;52.386;16.940;2023-04-19T10:06:19;18.70;46.80
21891;DHT22;11110;52.386;16.940;2023-04-19T10:08:52;18.60;47.00
21891;DHT22;11110;52.386;16.940;2023-04-19T10:11:22;18.60;47.10
21891;DHT22;11110;52.386;16.940;2023-04-19T10:13:57;18.50;47.20
21891;DHT22;11110;52.386;16.940;2023-04-19T10:16:27;18.50;47.20
21891;DHT22;11110;52.386;16.940;2023-04-19T10:19:00;18.30;47.60
21891;DHT22;11110;52.386;16.940;2023-04-19T10:21:28;18.40;47.80
21891;DHT22;11110;52.386;16.940;2023-04-19T10:23:58;18.40;47.70
21891;DHT22;11110;52.386;16.940;2023-04-19T10:26:27;18.30;47.90
21891;DHT22;11110;52.386;16.940;2023-04-19T10:28:56;18.40;48.00
21891;DHT22;11110;52.386;16.940;2023-04-19T10:31:25;18.50;48.00
21891;DHT22;11110;52.386;16.940;2023-04-19T10:33:54;18.60;47.90
21891;DHT22;11110;52.386;16.940;2023-04-19T10:36:26;18.60;47.80
21891;DHT22;11110;52.386;16.940;2023-04-19T10:38:56;18.60;47.60
21891;DHT22;11110;52.386;16.940;2023-04-19T10:41:57;18.60;47.70
21891;DHT22;11110;52.386;16.940;2023-04-19T10:44:26;18.70;47.80
21891;DHT22;11110;52.386;16.940;2023-04-19T10:46:54;18.60;47.60
21891;DHT22;11110;52.386;16.940;2023-04-19T10:49:23;18.50;47.60
21891;DHT22;11110;52.386;16.940;2023-04-19T10:51:52;18.40;47.90
21891;DHT22;11110;52.386;16.940;2023-04-19T10:54:29;18.50;47.90
21891;DHT22;11110;52.386;16.940;2023-04-19T10:56:59;18.40;47.70
21891;DHT22;11110;52.386;16.940;2023-04-19T10:59:29;18.30;47.80
21891;DHT22;11110;52.386;16.940;2023-04-19T11:01:59;18.20;47.70
21891;DHT22;11110;52.386;16.940;2023-04-19T11:07:40;18.30;48.00
21891;DHT22;11110;52.386;16.940;2023-04-19T11:10:09;18.30;47.90
21891;DHT22;11110;52.386;16.940;2023-04-19T11:12:42;18.30;47.70
21891;DHT22;11110;52.386;16.940;2023-04-19T11:15:11;18.30;47.90
21891;DHT22;11110;52.386;16.940;2023-04-19T11:17:39;18.40;47.90
21891;DHT22;11110;52.386;16.940;2023-04-19T11:20:09;18.40;48.00
21891;DHT22;11110;52.386;16.940;2023-04-19T11:22:43;18.50;48.10
21891;DHT22;11110;52.386;16.940;2023-04-19T11:25:13;18.50;48.00
21891;DHT22;11110;52.386;16.940;2023-04-19T11:27:43;18.60;47.80
21891;DHT22;11110;52.386;16.940;2023-04-19T11:30:14;18.70;48.20
21891;DHT22;11110;52.386;16.940;2023-04-19T11:32:45;18.80;48.30
21891;DHT22;11110;52.386;16.940;2023-04-19T11:35:18;18.90;47.90
21891;DHT22;11110;52.386;16.940;2023-04-19T11:37:48;18.90;47.80
21891;DHT22;11110;52.386;16.940;2023-04-19T11:40:18;18.90;47.90
21891;DHT22;11110;52.386;16.940;2023-04-19T11:42:52;18.90;47.70
21891;DHT22;11110;52.386;16.940;2023-04-19T11:45:25;19.00;48.00
21891;DHT22;11110;52.386;16.940;2023-04-19T11:47:58;19.10;47.90
21891;DHT22;11110;52.386;16.940;2023-04-19T11:50:35;19.00;47.60
21891;DHT22;11110;52.386;16.940;2023-04-19T11:53:15;19.00;48.20
21891;DHT22;11110;52.386;16.940;2023-04-19T11:55:45;18.90;47.50
21891;DHT22;11110;52.386;16.940;2023-04-19T11:58:24;18.90;47.80
21891;DHT22;11110;52.386;16.940;2023-04-19T12:00:56;18.90;47.80
21891;DHT22;11110;52.386;16.940;2023-04-19T12:03:26;18.80;47.90
21891;DHT22;11110;52.386;16.940;2023-04-19T12:05:56;18.80;48.00
21891;DHT22;11110;52.386;16.940;2023-04-19T12:08:32;18.80;47.90
21891;DHT22;11110;52.386;16.940;2023-04-19T12:11:01;18.80;47.80
21891;DHT22;11110;52.386;16.940;2023-04-19T12:13:31;18.80;47.80
21891;DHT22;11110;52.386;16.940;2023-04-19T12:16:00;18.90;48.10
21891;DHT22;11110;52.386;16.940;2023-04-19T12:18:41;18.90;48.00
21891;DHT22;11110;52.386;16.940;2023-04-19T12:21:23;19.00;47.70
21891;DHT22;11110;52.386;16.940;2023-04-19T12:23:54;19.10;47.70
21891;DHT22;11110;52.386;16.940;2023-04-19T12:26:23;19.20;47.80
21891;DHT22;11110;52.386;16.940;2023-04-19T12:28:52;19.30;47.60
21891;DHT22;11110;52.386;16.940;2023-04-19T12:31:21;19.30;47.50
21891;DHT22;11110;52.386;16.940;2023-04-19T12:33:50;19.30;47.30
21891;DHT22;11110;52.386;16.940;2023-04-19T12:36:18;19.30;47.30
21891;DHT22;11110;52.386;16.940;2023-04-19T12:38:47;19.30;47.20
21891;DHT22;11110;52.386;16.940;2023-04-19T12:41:17;19.30;47.20
21891;DHT22;11110;52.386;16.940;2023-04-19T12:43:47;19.30;47.10
21891;DHT22;11110;52.386;16.940;2023-04-19T12:46:15;19.20;47.00
21891;DHT22;11110;52.386;16.940;2023-04-19T12:48:44;19.30;47.30
21891;DHT22;11110;52.386;16.940;2023-04-19T12:51:12;19.30;47.00
21891;DHT22;11110;52.386;16.940;2023-04-19T12:53:46;19.20;47.20
21891;DHT22;11110;52.386;16.940;2023-04-19T12:56:14;19.10;47.30
21891;DHT22;11110;52.386;16.940;2023-04-19T12:58:44;19.20;47.50
21891;DHT22;11110;52.386;16.940;2023-04-19T13:01:13;19.30;47.40
21891;DHT22;11110;52.386;16.940;2023-04-19T13:03:41;19.40;47.30
21891;DHT22;11110;52.386;16.940;2023-04-19T13:06:10;19.50;47.20
21891;DHT22;11110;52.386;16.940;2023-04-19T13:08:40;19.30;47.00
21891;DHT22;11110;52.386;16.940;2023-04-19T13:11:15;19.30;47.00
21891;DHT22;11110;52.386;16.940;2023-04-19T13:13:51;19.20;47.30
21891;DHT22;11110;52.386;16.940;2023-04-19T13:16:20;19.30;47.40
21891;DHT22;11110;52.386;16.940;2023-04-19T13:18:49;19.40;47.20
21891;DHT22;11110;52.386;16.940;2023-04-19T13:21:19;19.40;46.80
21891;DHT22;11110;52.386;16.940;2023-04-19T13:23:47;19.40;46.80
21891;DHT22;11110;52.386;16.940;2023-04-19T13:26:15;19.40;46.80
21891;DHT22;11110;52.386;16.940;2023-04-19T13:28:44;19.40;46.70
21891;DHT22;11110;52.386;16.940;2023-04-19T13:31:14;19.40;46.70
21891;DHT22;11110;52.386;16.940;2023-04-19T13:33:43;19.50;46.80
21891;DHT22;11110;52.386;16.940;2023-04-19T13:36:12;19.60;46.80
21891;DHT22;11110;52.386;16.940;2023-04-19T13:38:41;19.60;46.70
21891;DHT22;11110;52.386;16.940;2023-04-19T13:41:09;19.70;46.70
21891;DHT22;11110;52.386;16.940;2023-04-19T13:43:38;19.70;46.60
21891;DHT22;11110;52.386;16.940;2023-04-19T13:46:07;19.80;46.60
21891;DHT22;11110;52.386;16.940;2023-04-19T13:48:36;19.70;46.40
21891;DHT22;11110;52.386;16.940;2023-04-19T13:51:06;19.80;46.60
21891;DHT22;11110;52.386;16.940;2023-04-19T13:53:34;19.80;46.70
21891;DHT22;11110;52.386;16.940;2023-04-19T13:56:03;19.80;46.70
21891;DHT22;11110;52.386;16.940;2023-04-19T13:58:35;19.90;46.90
21891;DHT22;11110;52.386;16.940;2023-04-19T14:01:04;20.10;47.00
21891;DHT22;11110;52.386;16.940;2023-04-19T14:03:32;19.90;47.00
21891;DHT22;11110;52.386;16.940;2023-04-19T14:06:03;20.00;47.20
21891;DHT22;11110;52.386;16.940;2023-04-19T14:08:31;20.10;47.00
21891;DHT22;11110;52.386;16.940;2023-04-19T14:11:00;20.10;46.80
21891;DHT22;11110;52.386;16.940;2023-04-19T14:13:28;20.30;47.00
21891;DHT22;11110;52.386;16.940;2023-04-19T14:15:57;20.30;47.20
21891;DHT22;11110;52.386;16.940;2023-04-19T14:18:25;20.40;47.00
21891;DHT22;11110;52.386;16.940;2023-04-19T14:20:54;20.50;47.00
21891;DHT22;11110;52.386;16.940;2023-04-19T14:23:24;20.60;46.80
21891;DHT22;11110;52.386;16.940;2023-04-19T14:25:52;20.70;46.70
21891;DHT22;11110;52.386;16.940;2023-04-19T14:28:21;20.80;46.80
21891;DHT22;11110;52.386;16.940;2023-04-19T14:30:49;20.90;46.80
21891;DHT22;11110;52.386;16.940;2023-04-19T14:33:17;21.10;46.80
21891;DHT22;11110;52.386;16.940;2023-04-19T14:35:46;21.20;46.50
21891;DHT22;11110;52.386;16.940;2023-04-19T14:38:14;21.30;46.20
21891;DHT22;11110;52.386;16.940;2023-04-19T14:40:45;21.30;46.10
21891;DHT22;11110;52.386;16.940;2023-04-19T14:43:14;21.40;46.20
21891;DHT22;11110;52.386;16.940;2023-04-19T14:45:43;21.40;46.60
21891;DHT22;11110;52.386;16.940;2023-04-19T14:48:11;21.50;45.60
21891;DHT22;11110;52.386;16.940;2023-04-19T14:50:40;21.60;45.50
21891;DHT22;11110;52.386;16.940;2023-04-19T14:53:08;21.50;44.80
21891;DHT22;11110;52.386;16.940;2023-04-19T14:55:37;21.50;45.00
21891;DHT22;11110;52.386;16.940;2023-04-19T14:58:07;21.60;45.00
21891;DHT22;11110;52.386;16.940;2023-04-19T15:00:36;21.70;44.70
21891;DHT22;11110;52.386;16.940;2023-04-19T15:03:04;21.70;44.70
21891;DHT22;11110;52.386;16.940;2023-04-19T15:05:33;21.70;44.50
21891;DHT22;11110;52.386;16.940;2023-04-19T15:08:02;21.80;44.50
21891;DHT22;11110;52.386;16.940;2023-04-19T15:10:30;21.70;44.70
21891;DHT22;11110;52.386;16.940;2023-04-19T15:12:59;21.80;44.60
21891;DHT22;11110;52.386;16.940;2023-04-19T15:15:29;21.90;44.60
21891;DHT22;11110;52.386;16.940;2023-04-19T15:17:57;21.90;44.60
21891;DHT22;11110;52.386;16.940;2023-04-19T15:20:26;22.00;44.60
21891;DHT22;11110;52.386;16.940;2023-04-19T15:22:54;22.00;44.50
21891;DHT22;11110;52.386;16.940;2023-04-19T15:25:23;21.90;44.60
21891;DHT22;11110;52.386;16.940;2023-04-19T15:27:52;22.00;44.90
21891;DHT22;11110;52.386;16.940;2023-04-19T15:30:20;22.00;44.80
21891;DHT22;11110;52.386;16.940;2023-04-19T15:32:50;22.10;44.80
21891;DHT22;11110;52.386;16.940;2023-04-19T15:35:19;22.10;44.70
21891;DHT22;11110;52.386;16.940;2023-04-19T15:37:47;22.10;44.90
21891;DHT22;11110;52.386;16.940;2023-04-19T15:40:16;22.10;44.80
21891;DHT22;11110;52.386;16.940;2023-04-19T15:42:44;22.10;44.50